Midland, Ohio
Current Conditions -  °F | °C
As of 3:54 AM on Friday 24 Oct 2014 (Local Time) from KILN Reporting Station
Haze Haze  
Wind Chill: 38°   Ceiling: Unl
Heat Index: 38°   Visibility: 6mi
Dew Point: 36°   Wind: 0mph
Humidity: 93%   Direction: NA
Pressure: 30.12"   Gusts: NA
Location:  39.31°N, 83.91°W
Report Text: KILN 240754Z AUTO 00000KT 6SM BR CLR 03/02 A3012 RMK AO2 SLP209 T00330022
Loading
Personal Weather Stations






























Interactive Weather Map
Tropical Storm Tracking
New forecast layout! Learn more

10-Day Weather Forecast

Advertisements
Track Severe Weather on mobile